createdAt,value
2017-12-23T00:01:41.086Z,2.00
2017-12-23T00:04:14.492Z,2.33
2017-12-23T00:06:48.048Z,2.00
2017-12-23T00:09:21.586Z,3.00
2017-12-23T00:11:54.946Z,2.00
2017-12-23T00:14:28.966Z,2.00
2017-12-23T00:17:02.454Z,1.67
2017-12-23T00:19:35.967Z,2.00
2017-12-23T00:22:09.426Z,1.67
2017-12-23T00:24:42.894Z,2.00
2017-12-23T00:27:16.226Z,2.00
2017-12-23T00:29:50.061Z,2.00
2017-12-23T00:32:23.443Z,2.17
2017-12-23T00:34:56.751Z,2.00
2017-12-23T00:37:30.243Z,2.00
2017-12-23T00:40:03.753Z,2.17
2017-12-23T00:42:37.237Z,2.83
2017-12-23T00:45:16.017Z,2.00
2017-12-23T00:47:49.578Z,3.00
2017-12-23T00:50:23.021Z,2.33
2017-12-23T00:52:56.643Z,2.00
2017-12-23T00:55:30.194Z,2.67
2017-12-23T00:58:03.871Z,3.00
2017-12-23T01:00:37.286Z,2.83
2017-12-23T01:03:10.666Z,2.17
2017-12-23T01:05:44.526Z,2.33
2017-12-23T01:08:18.076Z,2.83
2017-12-23T01:10:51.582Z,2.00
2017-12-23T01:13:25.182Z,2.50
2017-12-23T01:15:58.595Z,2.00
2017-12-23T01:18:32.323Z,2.83
2017-12-23T01:21:05.771Z,2.17
2017-12-23T01:23:39.187Z,2.50
2017-12-23T01:26:12.900Z,2.67
2017-12-23T01:28:46.698Z,2.00
2017-12-23T01:31:21.085Z,2.17
2017-12-23T01:33:54.739Z,1.17
2017-12-23T01:36:28.344Z,3.00
2017-12-23T01:39:01.930Z,2.00
2017-12-23T01:41:35.382Z,2.00
2017-12-23T01:44:08.826Z,2.33
2017-12-23T01:46:42.206Z,2.00
2017-12-23T01:49:15.437Z,2.00
2017-12-23T01:51:49.018Z,2.83
2017-12-23T01:54:22.310Z,2.17
2017-12-23T01:56:56.006Z,2.50
2017-12-23T01:59:29.525Z,2.00
2017-12-23T02:02:02.939Z,1.83
2017-12-23T02:04:36.450Z,2.00
2017-12-23T02:07:09.982Z,2.00
2017-12-23T02:09:43.431Z,2.00
2017-12-23T02:12:17.398Z,3.00
2017-12-23T02:14:50.818Z,2.50
2017-12-23T02:17:24.238Z,2.00
2017-12-23T02:19:57.962Z,2.00
2017-12-23T02:22:31.510Z,2.00
2017-12-23T02:25:05.108Z,2.00
2017-12-23T02:27:38.598Z,1.00
2017-12-23T02:30:14.417Z,2.00
2017-12-23T02:32:48.064Z,1.83
2017-12-23T02:35:21.694Z,2.17
2017-12-23T02:37:55.395Z,2.00
2017-12-23T02:40:28.964Z,2.00
2017-12-23T02:43:02.403Z,1.83
2017-12-23T02:45:35.807Z,1.83
2017-12-23T02:48:09.702Z,2.00
2017-12-23T02:50:43.902Z,2.83
2017-12-23T02:53:17.495Z,2.00
2017-12-23T02:55:51.086Z,2.00
2017-12-23T02:58:24.618Z,2.83
2017-12-23T03:00:58.077Z,2.00
2017-12-23T03:03:31.503Z,2.17
2017-12-23T03:06:07.436Z,2.00
2017-12-23T03:08:41.902Z,2.17
2017-12-23T03:11:15.479Z,1.50
2017-12-23T03:13:49.094Z,1.50
2017-12-23T03:16:22.658Z,2.00
2017-12-23T03:18:56.082Z,2.00
2017-12-23T03:21:29.882Z,1.83
2017-12-23T03:24:03.353Z,2.17
2017-12-23T03:26:36.860Z,2.33
2017-12-23T03:29:10.403Z,1.17
2017-12-23T03:31:43.823Z,2.00
2017-12-23T03:34:17.387Z,2.83
2017-12-23T03:36:51.059Z,2.00
2017-12-23T03:39:24.595Z,1.67
2017-12-23T03:41:57.850Z,2.00
2017-12-23T03:44:31.483Z,2.33
2017-12-23T03:47:05.085Z,1.67
2017-12-23T03:49:38.410Z,2.00
2017-12-23T03:52:12.388Z,2.67
2017-12-23T03:54:45.792Z,2.00
2017-12-23T03:57:19.399Z,2.00
2017-12-23T03:59:52.988Z,1.00
2017-12-23T04:02:26.446Z,2.00
2017-12-23T04:04:59.882Z,2.00
2017-12-23T04:07:33.650Z,2.00
2017-12-23T04:10:07.186Z,2.00
2017-12-23T04:12:41.410Z,2.00
2017-12-23T04:15:16.115Z,2.00
2017-12-23T04:17:49.304Z,1.00
2017-12-23T04:20:22.699Z,1.83
2017-12-23T04:22:56.298Z,2.00
2017-12-23T04:25:29.803Z,1.00
2017-12-23T04:28:04.606Z,2.00
2017-12-23T04:30:38.127Z,1.50
2017-12-23T04:33:11.610Z,2.00
2017-12-23T04:35:45.025Z,2.00
2017-12-23T04:38:18.519Z,1.67
2017-12-23T04:40:53.360Z,2.00
2017-12-23T04:43:26.919Z,2.00
2017-12-23T04:46:00.589Z,1.83
2017-12-23T04:48:34.549Z,1.83
2017-12-23T04:51:08.171Z,2.00
2017-12-23T04:53:41.769Z,2.00
2017-12-23T04:56:15.390Z,1.50
2017-12-23T04:58:48.870Z,2.00
2017-12-23T05:01:22.295Z,2.17
2017-12-23T05:03:56.142Z,2.17
2017-12-23T05:06:29.758Z,1.83
2017-12-23T05:09:03.339Z,1.67
2017-12-23T05:11:36.982Z,2.00
2017-12-23T05:14:10.567Z,2.50
2017-12-23T05:16:44.127Z,2.33
2017-12-23T05:19:17.938Z,1.50
2017-12-23T05:21:51.583Z,2.00
2017-12-23T05:24:25.095Z,2.00
2017-12-23T05:26:58.498Z,2.33
2017-12-23T05:29:32.150Z,1.83
2017-12-23T05:32:06.044Z,2.00
2017-12-23T05:34:39.562Z,2.00
2017-12-23T05:37:17.132Z,1.33
2017-12-23T05:39:50.548Z,2.33
2017-12-23T05:42:23.982Z,2.67
2017-12-23T05:44:57.334Z,2.67
2017-12-23T05:47:30.778Z,1.33
2017-12-23T05:50:04.367Z,2.50
2017-12-23T05:52:37.765Z,1.67
2017-12-23T05:55:11.126Z,1.17
2017-12-23T05:57:45.066Z,2.00
2017-12-23T06:00:18.766Z,2.00
2017-12-23T06:02:52.192Z,2.00
2017-12-23T06:05:25.795Z,2.00
2017-12-23T06:07:59.498Z,2.00
2017-12-23T06:10:33.077Z,2.00
2017-12-23T06:13:06.890Z,2.00
2017-12-23T06:15:40.483Z,2.00
2017-12-23T06:18:14.058Z,2.67
2017-12-23T06:20:47.607Z,2.50
2017-12-23T06:23:21.272Z,1.00
2017-12-23T06:25:54.898Z,2.00
2017-12-23T06:28:28.759Z,2.00
2017-12-23T06:31:02.182Z,2.00
2017-12-23T06:33:35.422Z,2.00
2017-12-23T06:36:09.004Z,2.00
2017-12-23T06:38:42.363Z,2.00
2017-12-23T06:41:15.682Z,2.00
2017-12-23T06:43:49.387Z,2.00
2017-12-23T06:46:23.094Z,2.17
2017-12-23T06:48:56.554Z,1.17
2017-12-23T06:51:29.874Z,2.00
2017-12-23T06:54:03.450Z,1.17
2017-12-23T06:56:36.991Z,1.67
2017-12-23T06:59:10.851Z,2.00
2017-12-23T07:01:44.453Z,2.00
2017-12-23T07:04:18.055Z,2.00
2017-12-23T07:06:51.590Z,1.33
2017-12-23T07:09:25.064Z,1.00
2017-12-23T07:11:58.582Z,2.00
2017-12-23T07:14:32.374Z,2.00
2017-12-23T07:17:05.902Z,2.33
2017-12-23T07:19:40.763Z,2.00
2017-12-23T07:22:14.202Z,1.67
2017-12-23T07:24:47.633Z,2.00
2017-12-23T07:27:21.114Z,2.00
2017-12-23T07:29:54.832Z,2.00
2017-12-23T07:32:28.202Z,2.00
2017-12-23T07:35:01.637Z,2.17
2017-12-23T07:37:35.531Z,2.00
2017-12-23T07:40:09.138Z,1.00
2017-12-23T07:42:42.716Z,1.50
2017-12-23T07:45:16.235Z,1.33
2017-12-23T07:47:49.711Z,1.33
2017-12-23T07:50:23.459Z,1.00
2017-12-23T07:52:57.091Z,1.00
2017-12-23T07:55:30.559Z,1.00
2017-12-23T07:58:04.052Z,1.33
2017-12-23T08:00:37.497Z,1.83
2017-12-23T08:03:11.315Z,1.00
2017-12-23T08:05:44.927Z,1.67
2017-12-23T08:08:18.422Z,1.83
2017-12-23T08:10:52.112Z,1.17
2017-12-23T08:13:25.462Z,2.00
2017-12-23T08:15:59.047Z,1.50
2017-12-23T08:18:32.650Z,1.00
2017-12-23T08:21:06.255Z,1.83
2017-12-23T08:23:39.974Z,2.00
2017-12-23T08:26:13.743Z,2.00
2017-12-23T08:28:47.369Z,1.83
2017-12-23T08:31:20.753Z,1.00
2017-12-23T08:33:54.454Z,1.33
2017-12-23T08:36:28.030Z,1.00
2017-12-23T08:39:01.584Z,1.17
2017-12-23T08:41:35.005Z,1.17
2017-12-23T08:44:08.859Z,1.00
2017-12-23T08:46:42.567Z,1.00
2017-12-23T08:49:16.183Z,2.00
2017-12-23T08:51:50.202Z,2.00
2017-12-23T08:54:23.590Z,2.00
2017-12-23T08:56:57.468Z,2.00
2017-12-23T08:59:31.056Z,1.00
2017-12-23T09:02:05.471Z,1.00
2017-12-23T09:04:40.033Z,1.00
2017-12-23T09:07:15.344Z,1.00
2017-12-23T09:09:49.141Z,2.00
2017-12-23T09:12:22.803Z,1.17
2017-12-23T09:14:56.430Z,1.00
2017-12-23T09:17:32.160Z,1.50
2017-12-23T09:20:07.569Z,1.00
2017-12-23T09:22:43.862Z,1.00
2017-12-23T09:25:21.549Z,1.83
2017-12-23T09:27:59.133Z,1.83
2017-12-23T09:30:35.611Z,1.00
2017-12-23T09:33:09.466Z,1.00
2017-12-23T09:35:47.286Z,1.17
2017-12-23T09:38:23.553Z,1.00
2017-12-23T09:41:02.421Z,1.00
2017-12-23T09:43:37.810Z,1.00
2017-12-23T09:46:14.927Z,1.00
2017-12-23T09:48:51.951Z,1.67
2017-12-23T09:51:30.605Z,1.83
2017-12-23T09:54:08.608Z,1.33
2017-12-23T09:56:46.212Z,1.17
2017-12-23T09:59:22.146Z,1.00
2017-12-23T10:01:57.537Z,1.50
2017-12-23T10:04:35.851Z,1.50
2017-12-23T10:07:14.830Z,1.83
2017-12-23T10:09:53.402Z,1.00
2017-12-23T10:12:32.197Z,1.33
2017-12-23T10:15:11.961Z,1.00
2017-12-23T10:17:50.883Z,1.17
2017-12-23T10:20:29.946Z,1.50
2017-12-23T10:23:10.621Z,1.00
2017-12-23T10:25:49.202Z,1.00
2017-12-23T10:28:29.481Z,1.00
2017-12-23T10:31:08.651Z,1.00
2017-12-23T10:33:47.758Z,1.00
2017-12-23T10:36:28.509Z,1.50
2017-12-23T10:39:10.566Z,1.00
2017-12-23T10:41:51.813Z,1.00
2017-12-23T10:44:30.225Z,1.00
2017-12-23T10:47:08.871Z,1.67
2017-12-23T10:49:47.702Z,2.00
2017-12-23T10:52:26.421Z,1.00
2017-12-23T10:55:09.044Z,1.00
2017-12-23T10:57:48.892Z,1.50
2017-12-23T11:00:30.177Z,1.00
2017-12-23T11:03:11.375Z,1.00
2017-12-23T11:05:51.968Z,1.67
2017-12-23T11:08:32.840Z,2.00
2017-12-23T11:11:14.008Z,1.17
2017-12-23T11:13:52.697Z,1.17
2017-12-23T11:16:33.262Z,1.33
2017-12-23T11:19:14.416Z,1.00
2017-12-23T11:21:54.746Z,2.00
2017-12-23T11:24:34.206Z,2.00
2017-12-23T11:27:14.056Z,2.00
2017-12-23T11:29:51.841Z,1.00
2017-12-23T11:32:29.902Z,1.00
2017-12-23T11:35:08.822Z,1.33
2017-12-23T11:37:44.292Z,2.00
2017-12-23T11:40:23.181Z,1.17
2017-12-23T11:43:01.013Z,2.83
2017-12-23T11:45:39.951Z,1.00
2017-12-23T11:48:22.274Z,1.83
2017-12-23T11:51:01.589Z,1.83
2017-12-23T11:53:39.314Z,2.00
2017-12-23T11:56:19.248Z,1.00
2017-12-23T11:59:03.361Z,1.00
2017-12-23T12:01:43.388Z,1.83
2017-12-23T12:04:24.036Z,1.00
2017-12-23T12:07:02.399Z,1.50
2017-12-23T12:09:42.779Z,1.00
2017-12-23T12:12:19.177Z,1.00
2017-12-23T12:14:55.345Z,2.00
2017-12-23T12:17:34.032Z,1.17
2017-12-23T12:20:09.543Z,1.00
2017-12-23T12:22:43.257Z,1.83
2017-12-23T12:25:18.716Z,1.00
2017-12-23T12:27:55.977Z,1.17
2017-12-23T12:30:41.428Z,1.50
2017-12-23T12:33:18.259Z,2.00
2017-12-23T12:35:55.704Z,1.83
2017-12-23T12:38:30.872Z,1.00
2017-12-23T12:41:04.862Z,1.00
2017-12-23T12:43:40.898Z,1.00
2017-12-23T12:46:15.880Z,1.00
2017-12-23T12:48:56.871Z,1.00
2017-12-23T12:51:37.186Z,1.00
2017-12-23T12:54:23.124Z,0.33
2017-12-23T12:56:59.189Z,1.00
2017-12-23T12:59:34.888Z,1.00
2017-12-23T13:02:12.979Z,1.00
2017-12-23T13:04:48.073Z,1.17
2017-12-23T13:07:22.964Z,1.00
2017-12-23T13:10:01.844Z,1.00
2017-12-23T13:12:46.242Z,1.17
2017-12-23T13:15:27.464Z,1.83
2017-12-23T13:18:08.307Z,1.00
2017-12-23T13:20:48.475Z,1.00
2017-12-23T13:23:34.094Z,1.67
2017-12-23T13:26:15.359Z,1.00
2017-12-23T13:28:58.303Z,1.00
2017-12-23T13:31:39.846Z,1.00
2017-12-23T13:34:17.942Z,1.00
2017-12-23T13:37:02.121Z,1.00
2017-12-23T13:39:44.683Z,1.00
2017-12-23T13:42:25.915Z,1.00
2017-12-23T13:45:03.470Z,1.83
2017-12-23T13:47:43.532Z,1.00
2017-12-23T13:50:21.944Z,1.17
2017-12-23T13:52:58.214Z,1.67
2017-12-23T13:55:36.145Z,1.83
2017-12-23T13:58:13.592Z,1.00
2017-12-23T14:00:49.256Z,1.00
2017-12-23T14:03:28.421Z,1.33
2017-12-23T14:06:20.471Z,1.00
2017-12-23T14:09:02.956Z,1.00
2017-12-23T14:11:42.066Z,1.00
2017-12-23T14:14:21.889Z,0.83
2017-12-23T14:17:03.643Z,0.00
2017-12-23T14:19:49.690Z,1.00
2017-12-23T14:22:28.550Z,1.00
2017-12-23T14:25:06.199Z,0.83
2017-12-23T14:27:40.359Z,1.17
2017-12-23T14:30:15.950Z,1.00
2017-12-23T14:32:55.239Z,1.00
2017-12-23T14:35:36.161Z,0.67
2017-12-23T14:38:16.931Z,1.33
2017-12-23T14:41:01.036Z,1.00
2017-12-23T14:43:45.351Z,0.50
2017-12-23T14:46:25.075Z,1.00
2017-12-23T14:49:09.568Z,1.00
2017-12-23T14:51:52.801Z,1.00
2017-12-23T14:54:26.945Z,0.67
2017-12-23T14:57:01.726Z,1.00
2017-12-23T14:59:37.020Z,1.00
2017-12-23T15:02:11.096Z,1.00
2017-12-23T15:04:51.895Z,1.00
2017-12-23T15:07:36.410Z,0.67
2017-12-23T15:10:19.093Z,0.67
2017-12-23T15:12:59.433Z,1.00
2017-12-23T15:15:41.895Z,1.00
2017-12-23T15:18:23.969Z,1.00
2017-12-23T15:21:03.804Z,0.50
2017-12-23T15:23:48.612Z,1.00
2017-12-23T15:26:30.245Z,1.00
2017-12-23T15:29:11.779Z,0.67
2017-12-23T15:31:51.276Z,0.83
2017-12-23T15:34:35.900Z,0.83
2017-12-23T15:37:15.732Z,1.00
2017-12-23T15:39:54.611Z,1.00
2017-12-23T15:42:33.033Z,0.17
2017-12-23T15:45:16.171Z,0.67
2017-12-23T15:47:54.726Z,1.50
2017-12-23T15:50:43.161Z,0.67
2017-12-23T15:56:25.584Z,1.00
2017-12-23T15:59:12.189Z,1.00
2017-12-23T16:01:51.741Z,1.00
2017-12-23T16:04:32.390Z,2.00
2017-12-23T16:07:20.091Z,1.00
2017-12-23T16:10:01.323Z,0.50
2017-12-23T16:12:43.980Z,1.00
2017-12-23T16:15:30.195Z,1.17
2017-12-23T16:18:20.041Z,1.17
2017-12-23T16:21:01.740Z,0.67
2017-12-23T16:23:42.546Z,1.00
2017-12-23T16:26:23.202Z,1.00
2017-12-23T16:29:04.546Z,1.00
2017-12-23T16:31:46.966Z,1.00
2017-12-23T16:34:29.978Z,0.17
2017-12-23T16:37:13.085Z,1.00
2017-12-23T16:39:53.816Z,1.00
2017-12-23T16:42:35.202Z,1.00
2017-12-23T16:45:19.591Z,1.00
2017-12-23T16:47:58.456Z,1.67
2017-12-23T16:50:43.047Z,1.00
2017-12-23T16:53:26.813Z,1.00
2017-12-23T16:56:08.548Z,0.83
2017-12-23T16:58:52.903Z,1.00
2017-12-23T17:01:36.111Z,1.00
2017-12-23T17:04:16.943Z,0.00
2017-12-23T17:06:56.157Z,1.00
2017-12-23T17:09:44.258Z,1.00
2017-12-23T17:12:22.177Z,0.50
2017-12-23T17:15:00.790Z,1.00
2017-12-23T17:17:41.377Z,0.50
2017-12-23T17:20:20.174Z,0.67
2017-12-23T17:23:06.748Z,1.00
2017-12-23T17:25:51.967Z,1.00
2017-12-23T17:28:42.020Z,1.00
2017-12-23T17:31:25.354Z,1.00
2017-12-23T17:34:05.049Z,1.00
2017-12-23T17:36:48.224Z,1.00
2017-12-23T17:39:27.526Z,1.33
2017-12-23T17:42:08.839Z,1.00
2017-12-23T17:44:48.687Z,1.00
2017-12-23T17:47:29.473Z,1.00
2017-12-23T17:50:12.776Z,1.00
2017-12-23T17:52:55.998Z,1.33
2017-12-23T17:55:36.725Z,1.17
2017-12-23T18:00:51.745Z,1.00
2017-12-23T18:03:31.019Z,1.00
2017-12-23T18:06:09.204Z,1.00
2017-12-23T18:08:50.039Z,1.00
2017-12-23T18:11:31.281Z,1.00
2017-12-23T18:14:09.477Z,0.50
2017-12-23T18:16:48.298Z,0.67
2017-12-23T18:19:27.616Z,1.00
2017-12-23T18:22:06.538Z,1.00
2017-12-23T18:24:45.618Z,0.50
2017-12-23T18:27:24.687Z,1.00
2017-12-23T18:30:03.453Z,1.00
2017-12-23T18:32:44.537Z,1.00
2017-12-23T18:35:21.281Z,1.00
2017-12-23T18:37:56.794Z,1.00
2017-12-23T18:40:36.734Z,0.67
2017-12-23T18:43:17.411Z,1.00
2017-12-23T18:45:59.572Z,1.00
2017-12-23T18:48:37.861Z,1.00
2017-12-23T18:51:15.948Z,0.00
2017-12-23T18:53:51.560Z,1.00
2017-12-23T18:56:25.954Z,0.50
2017-12-23T18:59:01.014Z,1.00
2017-12-23T19:01:35.912Z,0.50
2017-12-23T19:04:13.328Z,1.17
2017-12-23T19:06:48.881Z,1.00
2017-12-23T19:09:25.944Z,1.00
2017-12-23T19:12:03.882Z,1.17
2017-12-23T19:14:40.599Z,1.00
2017-12-23T19:17:18.033Z,1.00
2017-12-23T19:19:58.221Z,1.00
2017-12-23T19:22:36.246Z,0.67
2017-12-23T19:25:14.879Z,1.00
2017-12-23T19:27:50.161Z,1.67
2017-12-23T19:30:32.507Z,1.00
2017-12-23T19:33:08.530Z,1.00
2017-12-23T19:35:48.548Z,1.00
2017-12-23T19:38:23.743Z,1.00
2017-12-23T19:40:59.685Z,1.00
2017-12-23T19:43:34.394Z,1.00
2017-12-23T19:46:09.342Z,1.00
2017-12-23T19:48:44.506Z,1.00
2017-12-23T19:51:18.422Z,1.00
2017-12-23T19:53:52.305Z,0.83
2017-12-23T19:56:26.728Z,1.00
2017-12-23T19:59:00.674Z,1.00
2017-12-23T20:01:34.533Z,1.00
2017-12-23T20:04:08.056Z,1.00
2017-12-23T20:06:41.541Z,1.00
2017-12-23T20:09:15.178Z,1.00
2017-12-23T20:11:49.864Z,1.33
2017-12-23T20:14:23.729Z,1.50
2017-12-23T20:16:57.899Z,1.00
